Hovedside
METAR-TAF:

METAR-TAF

Lufthavner :

Sandnessjøen lufthavn. Stokka

Sandnessjøen, Norge

breddegrad: 65-58N, lengdegrad: 012-28E, høyde over havet: 1 m

Gjeldene værobservasjon

Denne rapporten ble laget for 36 minutter siden, klokken 10:20 UTC
Vind 21 kt fra Sør med vindkast opp mot 32 kt
Temperatur 11°C
Luftfuktighet 76%
Trykk 990 hPa
Sikt 10 km eller mer
Få skyer i en høyde av 1500 ft, Bygeskyer.
Spredte skyer i en høyde av 2500 ft
Brutte skyer i en høyde av 4000 ft
regnbyger i nærheten

METAR: ENST 211020Z 18021G32KT 9999 VCSH FEW015CB SCT025 BKN040 11/07 Q0990 RMK WIND 300FT 18023KT

Tid: 12:56 (10:56 UTC)


TAF: fraværende

Værobservasjoner og værvarsel for over 4000 flyplasser (METAR- og TAF-rapporter).

Tilgjengelige stasjoner er representert av de røde og gule prikkene på kartet.

Hold musepekeren over prikken for å se navnet på stasjonen.

Klikk så for å se værobservasjoner og -varsler.

For å forandre kartet kan du klikke på den grønne knappen med svart kryss for å zoome inn, på den grønne knappen med strek for å zoome ut, eller på de grønne pilene for å se tilstøtende kart.


METAR-TAF: